CheckWX is a tool to help pilots better visualize weather data.  It is not intended as a substitute for an official pre-flight weather briefing.

07:29:06 UTC

KIWI METAR
Wiscasset Airport
Wiscasset, Maine, USA
Current

36 mins ago

KIWI 180653Z AUTO 00000KT 10SM OVC050 09/05 A3025 RMK AO2 SLP244 T00940050
Observed
Sep-18 @ 06:53 UTC
Visibility
10 SM
Flight Rules
VFR
Cloud Levels
  • Overcast at 5,000' AGL
Temperature
C / 48°F
Dewpoint
C / 41°F
Humidity
76%
Altimeter
30.25" Hg
Pressure
1024.42 hPa
Previous

2 hours ago

KIWI 180553Z AUTO 00000KT 10SM OVC050 10/06 A3026 RMK AO2 SLP246 T01000056 10139 20089 53005
Observed
Sep-18 @ 05:53 UTC
Visibility
10 SM
Flight Rules
VFR
Cloud Levels
  • Overcast at 5,000' AGL
Temperature
10°C / 50°F
Dewpoint
C / 43°F
Humidity
76%
Altimeter
30.26" Hg
Pressure
1024.72 hPa
Previous

3 hours ago

KIWI 180453Z AUTO 00000KT 10SM OVC050 09/06 A3025 RMK AO2 SLP245 T00940061 402000089
Observed
Sep-18 @ 04:53 UTC
Visibility
10 SM
Flight Rules
VFR
Cloud Levels
  • Overcast at 5,000' AGL
Temperature
C / 48°F
Dewpoint
C / 43°F
Humidity
82%
Altimeter
30.25" Hg
Pressure
1024.42 hPa